메인 페이지
METAR-TAF:

METAR-TAF

공항 :

아타튀르크 국제공항

이스탄불 이스탄불, 터키

위도: 40-58N, 경도: 028-49E, 고도: 48m

현재 날씨관측

예보는 43분 전, 04:20시(UTC)에 발표되었습니다.
여러 방향의 바람 2kt
온도 10°C
습도 82%
기압 1020 hPa
시정 10km 이상
고도 1200ft 상공 구름 조금
고도 3000ft 상공 구름 많음

METAR: LTBA 150420Z VRB02KT 9999 FEW012 BKN030 10/07 Q1020 NOSIG

시각: 08:03 (05:03 UTC)

예보

예보는 6 시간 23분 전, 22:40시(UTC)에 발표되었습니다.
예보 대상 시간: 15일 00시부터 16일 06시까지 (UTC)
여러 방향의 바람 2kt
시정 10km 이상
고도 3500ft 상공 구름 많음
전환 중
15일 02시부터 15일 05시까지 (UTC)
북동12kt
고도 1500ft 상공 구름 조금
고도 3000ft 상공 구름 많음
약한비
일시적
15일 07시부터 15일 10시까지 (UTC)
시정: 4000m
일시적
15일 12시부터 15일 16시까지 (UTC)
17kt, 순간 최대 풍속 27kt
시정: 4000m
고도 1200ft 상공 구름 보통
고도 2000ft 상공 구름 많음

TAF: LTBA 142240Z 1500/1606 VRB02KT 9999 BKN035 BECMG 1502/1505 04012KT -RA FEW015 BKN030 TEMPO 1507/1510 4000 RA TEMPO 1512/1516 36017G27KT 4000 RA SCT012 BKN020

4,000개 이상의 공항 관측 자료 및 예보 (METAR 및 TAF 보고).

지도상에서 검색 가능한 기상관측소가 노란 점과 빨간 점으로 표시되어 있습니다.

기상관측소 명을 보려면 표시 위로 마우스를 이동하세요.

날씨 관측과 예보를 보려면 클릭하세요.

지도 변경 : 확대하려면 엑스 표시가 있는 녹색 버튼, 축소하려면 빼기 표시가 있는 녹색 버튼, 다음 페이지의 지도를 보려면 녹색 화살표를 클릭하세요.


METAR-TAF: